Time;durP1;ratioP1;P1;durP2;ratioP2;P2;SDS_P1;SDS_P2;PMS_P1;PMS_P2;Temp;Humidity;BMP_temperature;BMP_pressure;BME280_temperature;BME280_humidity;BME280_pressure;Samples;Min_cycle;Max_cycle;Signal;HPM_P1;HPM_P2
2021/12/12 00:01:57;;;;;;;25.50;12.60;;;3.40;59.30;;;1.52;66.59;101867.59;8349156;28;20047;-90
2021/12/12 00:06:26;;;;;;;22.95;11.88;;;3.40;59.40;;;1.49;66.67;101870.16;8369721;28;20130;-88
2021/12/12 00:10:56;;;;;;;21.83;11.30;;;3.40;59.40;;;1.54;66.18;101876.16;8350122;28;20123;-89
2021/12/12 00:15:21;;;;;;;27.75;13.20;;;3.40;59.40;;;1.51;66.29;101860.69;8345069;28;20040;-90
2021/12/12 00:19:42;;;;;;;22.52;11.18;;;3.30;59.40;;;1.54;66.49;101864.16;8375556;28;20424;-89
2021/12/12 00:24:09;;;;;;;21.30;10.45;;;3.30;59.30;;;1.59;66.23;101868.44;8367782;28;20466;-90
2021/12/12 00:28:33;;;;;;;26.48;10.75;;;3.40;59.30;;;1.62;66.26;101879.59;8349489;28;20592;-89
2021/12/12 00:32:55;;;;;;;17.75;10.63;;;3.40;59.30;;;1.64;66.08;101879.59;8351778;28;20041;-88
2021/12/12 00:37:19;;;;;;;23.88;11.95;;;3.40;59.30;;;1.58;66.52;101872.72;8357752;28;20119;-89
2021/12/12 00:42:02;;;;;;;29.50;12.70;;;3.40;59.20;;;1.60;66.56;101883.88;8357117;28;20041;-88
2021/12/12 00:46:25;;;;;;;22.60;12.32;;;3.50;59.30;;;1.53;66.39;101889.88;8371260;28;20116;-91
2021/12/12 00:50:47;;;;;;;23.70;11.32;;;3.40;59.20;;;1.44;66.42;101880.44;8355568;28;20040;-91
2021/12/12 00:55:09;;;;;;;25.88;13.23;;;3.40;59.20;;;1.59;66.32;101925.06;8365660;28;20127;-91
2021/12/12 00:59:32;;;;;;;23.75;11.15;;;3.40;59.10;;;1.54;66.48;101913.06;8340361;28;20119;-91
2021/12/12 01:04:10;;;;;;;23.27;11.95;;;3.40;59.10;;;1.48;66.31;101928.47;8351537;28;20040;-91
2021/12/12 01:08:33;;;;;;;19.40;10.55;;;3.40;59.10;;;1.49;66.05;101929.34;8349817;28;20123;-91
2021/12/12 01:12:58;;;;;;;29.90;14.43;;;3.40;59.10;;;1.55;66.22;101939.66;8362990;28;20032;-91
2021/12/12 01:17:34;;;;;;;22.50;11.60;;;3.40;59.20;;;1.54;66.26;101943.09;8351837;28;20123;-91
2021/12/12 01:22:04;;;;;;;19.73;11.05;;;3.70;59.30;;;1.54;66.54;101943.94;8358416;28;20845;-90
2021/12/12 01:26:29;;;;;;;19.23;10.90;;;3.40;59.20;;;1.55;66.27;101931.94;8367085;28;20127;-92
2021/12/12 01:30:54;;;;;;;19.50;10.15;;;3.40;59.30;;;1.58;66.50;101931.06;8356288;28;20592;-92
2021/12/12 01:35:19;;;;;;;23.27;11.55;;;3.40;59.30;;;1.45;66.35;101912.19;8357254;28;20043;-92
2021/12/12 01:39:45;;;;;;;30.75;14.10;;;3.40;59.30;;;1.51;66.45;101914.75;8355228;28;20115;-91
2021/12/12 01:44:16;;;;;;;24.70;13.05;;;3.40;59.20;;;1.46;66.47;101919.91;8366589;28;20124;-92
2021/12/12 01:48:52;;;;;;;17.02;10.13;;;3.30;59.20;;;1.39;66.65;101915.59;8356285;28;20119;-92
2021/12/12 01:53:16;;;;;;;;;;;3.30;59.20;;;1.49;66.31;101921.63;8350810;28;20033;-92
2021/12/12 01:57:39;;;;;;;14.43;8.93;;;3.30;59.20;;;1.35;66.61;101906.16;8363203;28;19920;-91
2021/12/12 02:02:13;;;;;;;16.52;9.07;;;3.40;59.10;;;1.47;66.22;101931.06;8364349;28;20693;-92
2021/12/12 02:06:36;;;;;;;14.63;8.70;;;3.30;59.00;;;1.47;66.37;101923.34;8364456;28;20120;-91
2021/12/12 02:11:05;;;;;;;17.42;10.15;;;3.30;58.90;;;1.42;66.27;101917.31;8369929;28;20123;-92
2021/12/12 02:15:27;;;;;;;15.98;9.07;;;3.30;58.90;;;1.40;66.35;101914.72;8371675;28;20119;-92
2021/12/12 02:20:08;;;;;;;19.15;9.82;;;3.30;58.80;;;1.42;66.33;101907.88;8354251;28;20519;-91
2021/12/12 02:38:34;;;;;;;14.38;8.38;;;3.20;58.90;;;1.35;65.91;101923.28;8373006;28;20123;-93
2021/12/12 02:42:57;;;;;;;17.27;10.15;;;3.20;59.00;;;1.39;66.29;101937.91;8361225;28;20119;-92
2021/12/12 02:47:21;;;;;;;15.05;8.73;;;3.20;59.00;;;1.33;66.35;101924.16;8354636;28;20119;-92
2021/12/12 02:51:43;;;;;;;17.00;9.35;;;3.20;59.00;;;1.41;66.40;101931.06;8349824;28;20586;-93
2021/12/12 02:56:15;;;;;;;16.65;9.23;;;3.20;59.00;;;1.35;66.17;101925.88;8349494;28;20468;-93
2021/12/12 03:00:57;;;;;;;16.27;9.48;;;3.20;59.00;;;1.38;66.33;101949.03;8349579;28;20115;-92
2021/12/12 03:05:21;;;;;;;15.73;9.07;;;3.20;59.00;;;1.30;66.21;101938.75;8359170;28;20580;-92
2021/12/12 03:09:47;;;;;;;14.30;9.43;;;3.20;59.00;;;1.35;66.46;101941.31;8374774;28;20131;-91
2021/12/12 03:14:11;;;;;;;15.82;8.60;;;3.20;59.00;;;1.40;66.15;101942.19;8347285;28;20036;-92
2021/12/12 03:18:41;;;;;;;15.95;8.48;;;3.20;59.00;;;1.37;66.46;101944.75;8357835;28;20046;-92
2021/12/12 03:23:21;;;;;;;15.43;8.93;;;3.20;58.90;;;1.25;66.22;101941.28;8352666;28;20120;-92
2021/12/12 03:27:42;;;;;;;15.57;9.07;;;3.20;59.20;;;1.33;66.41;101960.19;8368670;28;20556;-92
2021/12/12 03:32:12;;;;;;;14.07;8.90;;;3.20;58.80;;;1.31;66.19;101967.03;8355061;28;20040;-92
2021/12/12 03:36:34;;;;;;;15.60;9.25;;;3.20;58.80;;;1.29;66.21;101955.88;8353050;28;20124;-92
2021/12/12 03:41:04;;;;;;;15.75;8.63;;;3.20;58.80;;;1.25;66.30;101946.44;8351890;28;20037;-92
2021/12/12 03:45:28;;;;;;;13.30;8.75;;;3.00;58.70;;;1.29;66.19;101958.44;8350271;28;20462;-92
2021/12/12 03:49:50;;;;;;;15.57;7.88;;;3.20;58.80;;;1.23;66.41;101955.88;8374766;28;20127;-92
2021/12/12 03:54:13;;;;;;;14.65;8.52;;;3.20;58.80;;;1.29;66.37;101967.88;8353599;28;20047;-92
2021/12/12 03:58:35;;;;;;;15.40;9.00;;;3.00;58.70;;;1.23;66.29;101963.59;8352150;28;20127;-92
2021/12/12 04:02:58;;;;;;;14.63;8.88;;;3.10;58.80;;;1.21;66.18;101954.13;8365821;28;20124;-91
2021/12/12 04:07:24;;;;;;;13.40;8.32;;;3.10;58.80;;;1.27;66.41;101969.59;8352080;28;20315;-92
2021/12/12 04:11:56;;;;;;;13.85;8.23;;;3.10;58.80;;;1.20;66.31;101958.44;8350289;28;20485;-92
2021/12/12 04:16:21;;;;;;;14.07;8.15;;;3.10;58.80;;;1.21;66.43;101967.84;8358356;28;20139;-91
2021/12/12 04:20:42;;;;;;;15.00;8.52;;;3.10;58.80;;;1.26;66.26;101968.72;8366589;28;20119;-91
2021/12/12 04:25:05;;;;;;;16.58;8.55;;;3.30;58.90;;;1.23;66.41;101976.44;8363156;28;20092;-92
2021/12/12 04:29:39;;;;;;;13.77;8.45;;;3.20;58.90;;;1.24;66.46;101978.19;8394913;28;20131;-92
2021/12/12 04:34:03;;;;;;;14.25;8.80;;;3.10;58.80;;;1.24;66.46;101980.75;8359669;28;20485;-92
2021/12/12 04:38:25;;;;;;;15.25;8.68;;;3.20;58.90;;;1.20;66.76;101983.31;8348088;28;20112;-92
2021/12/12 04:42:49;;;;;;;16.08;8.18;;;3.20;58.80;;;1.27;66.61;101996.19;8379970;28;20127;-92
2021/12/12 04:52:00;;;;;;;14.23;9.00;;;3.20;58.80;;;1.14;66.16;101988.44;8387434;28;20127;-92
2021/12/12 04:56:44;;;;;;;16.52;9.13;;;3.10;58.70;;;1.24;66.32;102008.16;8363435;28;20456;-92
2021/12/12 05:01:21;;;;;;;11.38;7.95;;;3.10;58.70;;;1.20;66.52;102009.03;8351110;28;20123;-91
2021/12/12 05:05:57;;;;;;;13.23;8.20;;;3.10;58.70;;;1.19;66.27;102007.28;8376702;28;20123;-92
2021/12/12 05:10:38;;;;;;;14.80;9.23;;;3.10;58.70;;;1.20;66.13;102001.31;8359885;28;20123;-91
2021/12/12 05:15:10;;;;;;;18.65;8.35;;;3.10;58.80;;;1.16;66.23;102008.16;8365631;28;20049;-92
2021/12/12 05:19:34;;;;;;;13.63;8.35;;;3.10;58.80;;;1.20;66.52;102015.03;8365307;28;20107;-92
2021/12/12 05:24:00;;;;;;;14.82;9.10;;;3.10;58.80;;;1.15;66.53;102010.72;8367111;28;20115;-91
2021/12/12 05:28:35;;;;;;;13.43;7.60;;;3.00;58.70;;;1.11;66.13;102017.56;8361493;28;20115;-92
2021/12/12 05:33:00;;;;;;;11.98;7.68;;;3.00;58.70;;;1.09;66.18;102027.00;8367093;28;20043;-89
2021/12/12 05:37:19;;;;;;;13.40;8.23;;;3.00;58.70;;;1.08;66.12;102017.53;8412096;28;20047;-81
2021/12/12 05:41:41;;;;;;;15.88;9.45;;;3.00;58.70;;;1.09;66.31;102016.69;8443194;28;20126;-81
2021/12/12 05:46:05;;;;;;;11.20;7.72;;;3.00;58.80;;;1.08;66.35;102018.41;8414455;28;20151;-82
2021/12/12 05:50:27;;;;;;;14.25;9.15;;;3.00;58.80;;;1.12;66.29;102029.56;8404786;28;20123;-82
2021/12/12 05:54:52;;;;;;;15.07;9.45;;;3.10;58.90;;;1.09;66.47;102021.84;8386672;28;20044;-81
2021/12/12 05:59:14;;;;;;;13.57;8.75;;;3.00;58.90;;;1.17;66.56;102034.75;8398404;28;20127;-81
2021/12/12 06:03:40;;;;;;;14.20;9.02;;;3.00;58.90;;;1.17;66.41;102027.03;8408038;28;20190;-83
2021/12/12 06:08:04;;;;;;;13.45;8.18;;;3.10;59.00;;;1.23;66.06;102034.78;8402539;28;20127;-82
2021/12/12 06:12:26;;;;;;;13.13;8.30;;;3.10;59.00;;;1.12;66.47;102005.56;8413203;28;20039;-81
2021/12/12 06:16:49;;;;;;;16.75;8.98;;;3.10;59.00;;;1.16;66.22;102007.28;8400062;28;20123;-82
2021/12/12 06:21:10;;;;;;;15.05;9.27;;;3.10;59.00;;;1.15;66.29;101998.72;8381912;28;20509;-82
2021/12/12 06:25:32;;;;;;;19.58;8.57;;;3.10;59.00;;;1.19;66.37;102015.00;8382709;28;20119;-84
2021/12/12 06:29:55;;;;;;;14.48;8.57;;;3.10;59.00;;;1.20;66.56;102014.19;8390906;28;20130;-82
2021/12/12 06:34:17;;;;;;;13.88;7.82;;;3.10;59.00;;;1.17;66.40;102009.03;8382704;28;20032;-83
2021/12/12 06:38:44;;;;;;;13.55;8.52;;;3.10;59.00;;;1.16;66.35;102018.47;8383528;28;20122;-81
2021/12/12 06:43:10;;;;;;;14.15;8.82;;;3.10;59.00;;;1.15;66.14;102010.72;8387015;28;20043;-82
2021/12/12 06:47:32;;;;;;;13.95;8.52;;;3.10;58.90;;;1.23;66.47;102030.47;8410539;28;20123;-82
2021/12/12 06:51:59;;;;;;;14.27;8.68;;;3.10;58.90;;;1.14;66.32;102025.31;8392236;28;20481;-84
2021/12/12 06:56:22;;;;;;;14.90;8.45;;;3.10;58.90;;;1.17;66.24;102040.75;8401547;28;20127;-78
2021/12/12 07:00:49;;;;;;;13.63;9.20;;;3.10;58.90;;;1.21;66.31;102031.31;8390771;28;20552;-82
2021/12/12 07:05:21;;;;;;;13.80;8.20;;;3.10;59.00;;;1.16;66.36;102038.16;8379011;28;20136;-83
2021/12/12 07:09:47;;;;;;;18.13;10.23;;;3.10;59.00;;;1.18;66.15;102039.03;8397307;28;20044;-80
2021/12/12 07:14:11;;;;;;;14.73;10.18;;;3.10;59.00;;;1.21;66.49;102049.34;8403437;28;20065;-80
2021/12/12 07:18:35;;;;;;;18.10;9.48;;;3.10;59.10;;;1.21;66.49;102050.19;8384329;28;20036;-79
2021/12/12 07:22:56;;;;;;;17.52;9.73;;;3.10;59.10;;;1.11;66.56;102027.88;8397466;28;20031;-80
2021/12/12 07:27:18;;;;;;;14.95;8.20;;;3.10;59.10;;;1.23;66.36;102053.63;8382774;28;20115;-79
2021/12/12 07:31:42;;;;;;;17.73;9.43;;;3.10;59.10;;;1.29;66.63;102061.38;8410595;28;20123;-80
2021/12/12 07:36:11;;;;;;;19.17;9.82;;;3.20;59.20;;;1.27;66.46;102063.09;8395608;28;20040;-80
2021/12/12 07:40:33;;;;;;;17.42;9.55;;;3.20;59.20;;;1.27;66.37;102057.94;8395253;28;20051;-79
2021/12/12 07:44:55;;;;;;;17.25;9.20;;;3.20;59.20;;;1.33;66.69;102065.69;8409182;28;20042;-81
2021/12/12 07:49:36;;;;;;;16.80;10.68;;;3.20;59.20;;;1.37;66.70;102073.41;8425297;28;20113;-81
2021/12/12 07:54:03;;;;;;;18.73;12.05;;;3.20;59.30;;;1.35;66.65;102064.81;8424809;28;20038;-81
2021/12/12 07:58:26;;;;;;;17.55;9.35;;;3.30;59.30;;;1.33;66.75;102057.13;8427418;28;20119;-82
2021/12/12 08:02:50;;;;;;;15.45;9.27;;;3.30;59.40;;;1.33;66.58;102044.25;8420550;28;20118;-81
2021/12/12 08:07:17;;;;;;;17.48;10.25;;;3.30;59.40;;;1.46;66.75;102068.31;8394387;28;20119;-82
2021/12/12 08:11:40;;;;;;;17.02;10.30;;;3.30;59.40;;;1.48;66.81;102074.31;8408335;28;20111;-80
2021/12/12 08:16:07;;;;;;;14.43;9.38;;;3.40;59.50;;;1.54;66.37;102071.81;8383461;28;20042;-82
2021/12/12 08:20:30;;;;;;;17.25;9.52;;;3.40;59.50;;;1.59;66.38;102070.06;8385223;28;20119;-84
2021/12/12 08:24:53;;;;;;;18.35;10.50;;;3.40;59.50;;;1.50;66.76;102039.16;8395781;28;20031;-80
2021/12/12 08:29:16;;;;;;;18.55;10.40;;;3.40;59.60;;;1.57;66.47;102048.63;8394941;28;20219;-85
2021/12/12 08:33:38;;;;;;;19.67;10.10;;;3.40;59.60;;;1.65;66.29;102053.81;8387294;28;20047;-83
2021/12/12 08:38:02;;;;;;;15.85;9.93;;;3.50;59.70;;;1.66;66.75;102040.94;8409212;28;20122;-83
2021/12/12 08:42:26;;;;;;;23.20;12.13;;;3.60;59.70;;;1.73;66.33;102052.97;8389962;28;20119;-81
2021/12/12 08:46:53;;;;;;;19.23;11.63;;;3.60;59.70;;;1.76;66.69;102057.28;8395192;28;20027;-81
2021/12/12 08:51:23;;;;;;;15.85;10.45;;;3.70;59.80;;;1.79;67.25;102054.72;8381702;28;20046;-82
2021/12/12 08:55:51;;;;;;;19.98;11.05;;;3.70;59.80;;;1.91;66.90;102066.75;8392538;28;20553;-81
2021/12/12 09:00:19;;;;;;;22.20;12.10;;;3.80;59.80;;;1.87;67.11;102041.84;8394055;28;20123;-81
2021/12/12 09:04:55;;;;;;;19.33;11.05;;;3.80;59.80;;;1.97;66.83;102053.88;8406773;28;20086;-81
2021/12/12 09:09:23;;;;;;;20.77;11.20;;;3.90;60.20;;;1.90;66.81;102018.69;8381123;28;20036;-80
2021/12/12 09:14:23;;;;;;;18.10;10.82;;;3.90;59.90;;;2.07;66.92;102041.88;8408530;28;20040;-79
2021/12/12 09:19:11;;;;;;;18.38;11.20;;;3.90;60.00;;;2.11;66.78;102036.72;8422092;28;20115;-81
2021/12/12 09:23:45;;;;;;;15.68;8.93;;;4.00;60.00;;;2.06;66.99;102020.41;8408031;28;20050;-81
2021/12/12 09:28:31;;;;;;;18.00;9.73;;;4.00;60.00;;;2.09;66.70;102015.25;8394870;28;20040;-79
2021/12/12 09:33:12;;;;;;;16.77;9.63;;;4.10;60.00;;;2.25;66.82;102031.59;8404299;28;20386;-79
2021/12/12 09:38:05;;;;;;;14.75;10.15;;;4.20;60.10;;;2.21;67.12;102004.09;8400727;28;20439;-76
2021/12/12 09:42:48;;;;;;;16.73;10.23;;;4.20;60.20;;;2.37;67.34;102017.81;8420235;28;20051;-79
2021/12/12 09:47:59;;;;;;;17.70;9.27;;;4.20;60.10;;;2.32;66.74;102001.50;8403245;28;20031;-80
2021/12/12 09:53:14;;;;;;;16.85;9.73;;;4.30;60.20;;;2.51;67.40;102033.28;8408321;28;20040;-79
2021/12/12 09:57:57;;;;;;;17.88;10.77;;;4.40;60.40;;;2.55;67.35;102035.88;8403846;28;20044;-79
2021/12/12 10:02:37;;;;;;;13.68;8.48;;;4.40;60.40;;;2.59;66.95;102039.28;8423475;28;20044;-78
2021/12/12 10:07:10;;;;;;;18.30;9.93;;;4.40;60.40;;;2.66;66.91;102039.28;8392879;28;20399;-78
2021/12/12 10:12:00;;;;;;;13.25;8.40;;;4.50;60.40;;;2.72;66.98;102048.75;8404102;28;20032;-78
2021/12/12 10:16:57;;;;;;;14.93;8.95;;;4.60;60.40;;;2.63;67.13;102017.81;8403806;28;20510;-78
2021/12/12 10:21:44;;;;;;;14.00;8.75;;;4.70;60.60;;;2.81;67.49;102045.31;8402674;28;20032;-78
2021/12/12 10:26:15;;;;;;;15.70;10.68;;;4.40;60.30;;;2.85;67.63;102045.28;8396960;28;20052;-77
2021/12/12 10:31:03;;;;;;;15.43;9.95;;;4.70;60.40;;;2.88;66.93;102044.41;8391025;28;20044;-76
2021/12/12 10:36:00;;;;;;;12.98;8.82;;;4.80;60.40;;;2.86;67.25;102034.13;8391257;28;20036;-77
2021/12/12 10:40:36;;;;;;;11.35;7.15;;;4.80;60.40;;;2.91;67.26;102031.50;8401853;28;20034;-78
2021/12/12 10:45:06;;;;;;;;;;;4.80;60.20;;;2.95;67.25;102022.91;8421911;28;20040;-78
2021/12/12 10:50:10;;;;;;;13.15;7.78;;;4.90;60.70;;;2.98;67.23;102022.91;8404620;28;19916;-77
2021/12/12 10:54:51;;;;;;;14.40;8.18;;;4.90;60.40;;;2.99;67.31;102005.69;8419798;28;20043;-78
2021/12/12 10:59:54;;;;;;;15.98;8.52;;;4.90;60.40;;;3.04;67.49;102011.69;8396295;28;20427;-78
2021/12/12 11:04:24;;;;;;;13.20;7.63;;;4.90;60.60;;;3.10;67.38;101999.63;8384971;28;20039;-78
2021/12/12 11:09:07;;;;;;;15.55;9.65;;;5.00;60.50;;;3.14;67.13;102002.22;8425980;28;20128;-77
2021/12/12 11:13:41;;;;;;;14.13;8.77;;;5.00;60.70;;;3.17;66.98;101989.28;8399689;28;20438;-78
2021/12/12 11:18:24;;;;;;;14.30;8.32;;;5.00;60.60;;;3.23;67.37;102003.00;8398145;28;20468;-79
2021/12/12 11:22:55;;;;;;;13.48;9.05;;;5.10;60.70;;;3.23;67.51;101990.13;8421902;28;20050;-79
2021/12/12 11:27:29;;;;;;;13.80;9.10;;;5.10;60.70;;;3.29;67.34;101999.56;8369871;28;20493;-78
2021/12/12 11:32:00;;;;;;;13.82;8.80;;;5.10;60.80;;;3.31;66.88;101988.34;8392976;28;20038;-78
2021/12/12 11:36:31;;;;;;;14.18;8.52;;;5.20;60.70;;;3.39;67.36;101995.22;8398923;28;20392;-78
2021/12/12 11:41:34;;;;;;;13.07;7.85;;;5.20;60.60;;;3.41;67.31;101989.19;8409398;28;20028;-78
2021/12/12 11:46:13;;;;;;;11.55;7.78;;;5.20;60.70;;;3.42;67.28;101987.44;8407226;28;20099;-78
2021/12/12 11:51:03;;;;;;;12.30;7.30;;;5.30;60.70;;;3.43;67.15;101991.72;8424064;28;20039;-78
2021/12/12 11:55:41;;;;;;;13.80;8.93;;;5.30;60.40;;;3.41;66.97;101983.16;8416926;28;20040;-77
2021/12/12 12:00:22;;;;;;;11.77;7.70;;;5.30;60.30;;;3.39;67.47;101972.81;8410344;28;20030;-78
2021/12/12 12:05:02;;;;;;;13.02;8.48;;;5.30;60.20;;;3.45;67.16;101972.78;8393534;28;20051;-79
2021/12/12 12:10:13;;;;;;;12.63;8.18;;;5.40;60.70;;;3.47;67.21;101968.47;8415528;28;20411;-79
2021/12/12 12:14:53;;;;;;;13.98;8.48;;;5.30;60.50;;;3.50;67.28;101971.03;8414114;28;20054;-78
2021/12/12 12:19:54;;;;;;;12.05;7.78;;;5.40;60.50;;;3.52;67.17;101958.13;8414564;28;20043;-80
2021/12/12 12:24:56;;;;;;;13.20;8.18;;;5.40;60.50;;;3.10;67.24;101896.38;8389510;28;20052;-77
2021/12/12 12:30:01;;;;;;;11.80;7.53;;;5.40;60.70;;;3.24;67.35;101903.19;8388281;28;20506;-76
2021/12/12 12:35:07;;;;;;;12.43;7.93;;;5.40;60.80;;;3.63;67.35;101955.47;8401973;28;20186;-78
2021/12/12 12:39:31;;;;;;;12.07;7.78;;;5.50;60.80;;;3.65;67.14;101949.44;8415990;28;20408;-77
2021/12/12 12:44:59;;;;;;;11.97;8.53;;;5.50;60.60;;;3.67;67.42;101955.47;8387469;28;20051;-79
2021/12/12 12:50:28;;;;;;;12.15;7.70;;;5.50;60.80;;;3.69;67.34;101955.44;8414368;28;20067;-76
2021/12/12 12:55:47;;;;;;;10.93;6.82;;;5.60;60.80;;;3.71;67.54;101948.53;8389404;28;20058;-76
2021/12/12 13:00:18;;;;;;;14.60;7.85;;;5.60;60.80;;;3.62;67.15;101920.16;8408174;28;20047;-76
2021/12/12 13:05:06;;;;;;;10.35;6.85;;;5.60;60.60;;;3.22;67.28;101845.59;8386049;28;20035;-76
2021/12/12 13:09:45;;;;;;;12.70;7.10;;;5.60;60.60;;;3.69;67.11;101925.28;8371693;28;20040;-76
2021/12/12 13:14:50;;;;;;;13.07;8.30;;;5.60;60.60;;;3.77;67.13;101915.75;8386404;28;20044;-76
2021/12/12 13:19:42;;;;;;;14.55;8.60;;;5.60;60.50;;;3.18;67.32;101802.59;8414111;28;20047;-77
2021/12/12 13:24:22;;;;;;;13.65;8.10;;;5.60;60.50;;;3.80;67.09;101898.53;8395717;28;20043;-76
2021/12/12 13:29:14;;;;;;;15.15;9.85;;;5.60;60.60;;;3.56;67.41;101851.34;8424833;28;20036;-76
2021/12/12 13:33:58;;;;;;;16.00;9.73;;;5.60;60.50;;;3.31;67.20;101811.97;8393458;28;20511;-76
2021/12/12 13:38:32;;;;;;;17.75;10.18;;;5.60;60.50;;;3.68;67.17;101866.75;8403096;28;20039;-76
2021/12/12 13:43:34;;;;;;;14.18;9.27;;;5.60;60.50;;;3.78;67.18;101880.47;8405948;28;20027;-77
2021/12/12 13:48:24;;;;;;;15.60;9.15;;;5.60;60.50;;;3.79;67.07;101866.66;8405873;28;20044;-77
2021/12/12 13:53:11;;;;;;;12.93;7.82;;;5.60;60.50;;;3.78;67.17;101859.81;8416419;28;20043;-77
2021/12/12 13:58:03;;;;;;;11.35;7.13;;;5.60;60.60;;;3.80;67.30;101867.53;8412940;28;20472;-75
2021/12/12 14:02:26;;;;;;;13.13;8.55;;;5.60;60.60;;;3.83;66.97;101867.50;8421577;28;20044;-75
2021/12/12 14:06:51;;;;;;;11.60;7.97;;;5.60;60.50;;;3.65;67.02;101828.03;8391166;28;20044;-77
2021/12/12 14:11:26;;;;;;;10.35;7.32;;;5.70;60.70;;;3.77;67.19;101838.25;8393607;28;20039;-76
2021/12/12 14:16:13;;;;;;;11.43;7.60;;;5.90;60.80;;;3.88;67.09;101865.72;8377693;28;20550;-76
2021/12/12 14:20:37;;;;;;;11.35;7.30;;;5.60;60.50;;;3.89;67.21;101867.44;8415402;28;20291;-75
2021/12/12 14:25:03;;;;;;;12.63;7.82;;;5.70;60.40;;;3.93;66.96;101869.13;8415202;28;20053;-76
2021/12/12 14:29:29;;;;;;;14.63;9.10;;;5.70;60.30;;;3.95;66.96;101868.25;8390640;28;20058;-77
2021/12/12 14:34:03;;;;;;;12.02;8.85;;;5.70;60.20;;;3.95;67.19;101867.41;8407074;28;20047;-75
2021/12/12 14:38:26;;;;;;;12.77;8.27;;;5.80;60.40;;;3.90;66.94;101858.81;8408216;28;20416;-77
2021/12/12 14:42:58;;;;;;;15.85;9.90;;;5.70;60.20;;;3.81;67.09;101840.81;8403326;28;20040;-75
2021/12/12 14:47:28;;;;;;;16.48;11.05;;;5.70;60.30;;;3.93;67.14;101864.81;8387540;28;20032;-76
2021/12/12 14:51:55;;;;;;;15.13;9.13;;;5.70;60.40;;;3.93;66.97;101864.81;8407193;28;20516;-75
2021/12/12 14:56:27;;;;;;;13.63;9.35;;;5.70;60.40;;;3.88;67.39;101865.72;8416523;28;20032;-75
2021/12/12 15:00:59;;;;;;;16.20;9.35;;;5.80;60.60;;;3.92;67.34;101878.63;8406068;28;20040;-76
2021/12/12 15:05:33;;;;;;;15.93;11.10;;;5.60;60.50;;;3.88;66.98;101876.91;8421154;28;20072;-75
2021/12/12 15:10:12;;;;;;;13.80;8.77;;;5.70;60.50;;;3.89;67.06;101873.47;8401363;28;20050;-75
2021/12/12 15:14:35;;;;;;;15.45;10.02;;;5.70;60.50;;;3.93;67.10;101876.88;8404623;28;20043;-76
2021/12/12 15:19:04;;;;;;;11.45;8.48;;;5.70;60.50;;;3.92;66.96;101882.94;8400707;28;20039;-74
2021/12/12 15:23:31;;;;;;;10.68;7.82;;;5.70;60.50;;;3.85;67.06;101858.84;8398606;28;20032;-74
2021/12/12 15:27:54;;;;;;;10.57;6.85;;;5.70;60.50;;;3.90;67.32;101859.66;8405743;28;20054;-76
2021/12/12 15:32:22;;;;;;;10.20;7.13;;;5.70;60.60;;;3.91;67.36;101861.38;8389201;28;20032;-75
2021/12/12 15:36:54;;;;;;;11.95;7.07;;;5.70;60.50;;;3.92;67.09;101854.50;8405493;28;20411;-73
2021/12/12 15:41:34;;;;;;;11.82;7.22;;;5.70;60.60;;;3.91;67.00;101853.63;8388211;28;20043;-76
2021/12/12 15:46:05;;;;;;;9.40;5.95;;;5.70;60.60;;;3.90;66.94;101853.66;8388537;28;20050;-77
2021/12/12 15:50:35;;;;;;;9.15;6.35;;;5.70;60.50;;;3.93;67.03;101851.88;8404159;28;20496;-75
2021/12/12 15:55:11;;;;;;;12.10;7.07;;;5.70;60.60;;;3.93;67.10;101846.72;8410359;28;20058;-77
2021/12/12 15:59:48;;;;;;;8.90;5.40;;;5.70;60.70;;;3.85;66.95;101833.03;8421095;28;20485;-77
2021/12/12 16:04:10;;;;;;;10.25;6.20;;;5.70;60.70;;;3.88;67.18;101845.91;8403850;28;20044;-75
2021/12/12 16:08:40;;;;;;;8.85;5.50;;;5.70;60.70;;;3.92;67.14;101852.78;8418499;28;20489;-76
2021/12/12 16:13:03;;;;;;;11.95;6.43;;;5.70;61.40;;;3.93;67.16;101859.63;8405666;28;20059;-76
2021/12/12 16:17:34;;;;;;;10.45;6.13;;;5.70;60.80;;;3.81;67.21;101839.09;8420050;28;20526;-76
2021/12/12 16:22:01;;;;;;;12.93;6.93;;;5.70;60.80;;;3.93;66.92;101849.31;8401634;28;20484;-78
2021/12/12 16:26:51;;;;;;;14.88;7.55;;;5.70;60.80;;;3.94;67.04;101851.03;8389757;28;20392;-75
2021/12/12 16:31:15;;;;;;;14.23;7.95;;;5.70;60.90;;;3.86;67.14;101844.19;8392117;28;20514;-75
2021/12/12 16:35:40;;;;;;;14.70;7.97;;;5.80;60.90;;;3.97;67.27;101861.34;8400980;28;20380;-76
2021/12/12 16:40:15;;;;;;;12.23;6.97;;;5.70;60.90;;;3.98;67.28;101852.72;8389737;28;20040;-74
2021/12/12 16:44:51;;;;;;;23.40;10.02;;;5.70;61.00;;;3.99;67.09;101845.81;8390471;28;20040;-75
2021/12/12 16:49:21;;;;;;;18.25;9.00;;;5.80;61.10;;;4.02;67.23;101853.53;8386667;28;20043;-75
2021/12/12 16:53:48;;;;;;;25.63;12.15;;;5.80;61.00;;;4.01;67.14;101849.22;8401581;28;20054;-76
2021/12/12 16:58:16;;;;;;;20.42;10.05;;;5.80;61.10;;;4.03;67.10;101854.41;8404211;28;20511;-75
2021/12/12 17:02:43;;;;;;;17.17;9.05;;;5.80;61.20;;;4.00;67.07;101842.38;8391022;28;20040;-75
2021/12/12 17:07:07;;;;;;;30.75;10.95;;;5.80;61.20;;;4.05;67.26;101852.63;8398442;28;20408;-76
2021/12/12 17:11:33;;;;;;;31.73;11.88;;;5.80;61.20;;;4.03;67.08;101851.81;8383988;28;20039;-76
2021/12/12 17:15:55;;;;;;;44.05;14.43;;;5.80;61.20;;;4.04;67.27;101854.38;8401400;28;20040;-76
2021/12/12 17:20:40;;;;;;;53.20;16.23;;;5.80;61.20;;;4.11;67.26;101857.75;8398377;28;20040;-76
2021/12/12 17:25:10;;;;;;;76.20;21.20;;;5.90;61.30;;;4.11;67.44;101848.28;8402567;28;20054;-76
2021/12/12 17:29:37;;;;;;;65.78;18.80;;;5.90;61.30;;;4.15;67.32;101849.09;8416108;28;20042;-76
2021/12/12 17:34:21;;;;;;;54.92;17.25;;;5.90;61.30;;;4.09;67.30;101844.00;8418200;28;20044;-76
2021/12/12 17:38:57;;;;;;;28.52;13.30;;;5.90;61.20;;;4.01;67.33;101823.41;8417689;28;20051;-76
2021/12/12 17:43:53;;;;;;;;;;;5.90;61.30;;;4.17;67.07;101831.84;8386055;28;20043;-76
2021/12/12 17:49:16;;;;;;;16.90;10.32;;;5.90;61.50;;;4.15;67.44;101839.59;8394475;28;20353;-76
2021/12/12 17:53:45;;;;;;;17.63;11.13;;;5.90;61.40;;;4.16;67.29;101851.69;8417284;28;20042;-75
2021/12/12 17:58:46;;;;;;;20.90;9.27;;;5.90;61.60;;;4.20;67.48;101850.75;8416012;28;21557;-78
2021/12/12 18:03:13;;;;;;;15.57;9.80;;;5.90;61.70;;;4.16;67.46;101843.06;8417739;28;20059;-76
2021/12/12 18:08:29;;;;;;;32.75;12.52;;;6.00;61.70;;;4.25;67.55;101855.88;8424294;28;20404;-76
2021/12/12 18:13:02;;;;;;;19.10;11.48;;;6.00;61.80;;;4.24;67.25;101848.13;8403851;28;20044;-75
2021/12/12 18:18:35;;;;;;;31.73;12.07;;;6.00;61.70;;;4.14;67.37;101835.31;8400419;28;20510;-78
2021/12/12 18:23:03;;;;;;;56.20;15.18;;;6.00;61.80;;;4.29;67.30;101856.69;8393627;28;20051;-76
2021/12/12 18:27:43;;;;;;;38.97;14.95;;;6.10;61.70;;;4.27;67.34;101854.16;8418229;28;20609;-76
2021/12/12 18:32:06;;;;;;;38.42;15.27;;;6.10;61.80;;;4.34;67.42;101862.69;8402323;28;20041;-78
2021/12/12 18:36:35;;;;;;;40.17;15.70;;;6.10;61.70;;;4.37;nan;101871.25;8390906;28;20046;-77
2021/12/12 18:41:19;;;;;;;30.33;14.38;;;6.10;61.70;;;4.34;67.33;101860.94;8395874;28;20036;-76
2021/12/12 18:45:44;;;;;;;24.17;14.20;;;6.20;61.80;;;4.37;nan;101860.06;8403560;28;20048;-77
2021/12/12 18:50:16;;;;;;;34.35;17.20;;;6.20;61.80;;;4.37;67.31;101860.91;8398681;28;20071;-78
2021/12/12 18:54:48;;;;;;;29.13;17.33;;;6.20;61.80;;;4.43;67.46;101868.63;8401984;28;20054;-76
2021/12/12 18:59:21;;;;;;;25.13;13.77;;;6.20;61.80;;;4.46;67.48;101877.22;8401389;28;20382;-76
2021/12/12 19:03:57;;;;;;;18.05;12.05;;;6.20;61.80;;;4.46;67.49;101870.31;8397583;28;20047;-77
2021/12/12 19:08:30;;;;;;;16.42;9.65;;;6.20;62.00;;;4.41;67.23;101852.25;8413131;28;20051;-75
2021/12/12 19:12:52;;;;;;;11.57;7.25;;;6.30;61.90;;;4.46;67.31;101861.69;8412544;28;20044;-76
2021/12/12 19:17:18;;;;;;;10.57;6.85;;;6.30;61.90;;;4.48;67.47;101862.53;8405848;28;20039;-74
2021/12/12 19:21:47;;;;;;;10.48;6.00;;;6.20;61.90;;;4.43;67.40;101858.28;8403957;28;20070;-76
2021/12/12 19:26:12;;;;;;;6.93;4.72;;;6.30;62.00;;;4.52;67.46;101869.38;8386651;28;20168;-79